createdAt,value
2019-05-30T00:00:40.540Z,3.92
2019-05-30T00:05:43.566Z,5.95
2019-05-30T00:10:46.224Z,7.12
2019-05-30T00:15:48.951Z,7.55
2019-05-30T00:20:51.681Z,4.62
2019-05-30T00:25:55.232Z,3.37
2019-05-30T00:30:58.340Z,4.70
2019-05-30T00:36:01.860Z,4.12
2019-05-30T00:41:04.683Z,4.35
2019-05-30T00:46:07.385Z,4.12
2019-05-30T00:51:10.038Z,7.33
2019-05-30T00:56:12.690Z,3.50
2019-05-30T01:01:15.431Z,5.78
2019-05-30T01:06:18.142Z,5.03
2019-05-30T01:11:20.789Z,3.55
2019-05-30T01:16:23.720Z,4.83
2019-05-30T01:21:26.375Z,4.50
2019-05-30T01:26:29.039Z,4.40
2019-05-30T01:31:31.755Z,5.33
2019-05-30T01:36:34.406Z,4.85
2019-05-30T01:41:37.063Z,7.85
2019-05-30T01:46:39.726Z,4.85
2019-05-30T01:51:42.783Z,4.10
2019-05-30T01:56:45.513Z,5.95
2019-05-30T02:01:48.246Z,4.22
2019-05-30T02:06:50.920Z,3.02
2019-05-30T02:11:53.630Z,4.70
2019-05-30T02:16:56.302Z,4.05
2019-05-30T02:21:59.721Z,8.90
2019-05-30T02:27:02.496Z,4.60
2019-05-30T02:32:06.624Z,5.70
2019-05-30T02:37:10.754Z,4.40
2019-05-30T02:42:13.944Z,5.95
2019-05-30T02:47:16.682Z,4.40
2019-05-30T02:52:19.407Z,6.72
2019-05-30T02:57:22.062Z,3.67
2019-05-30T03:02:24.800Z,6.47
2019-05-30T03:07:27.537Z,5.80
2019-05-30T03:12:30.330Z,3.65
2019-05-30T03:17:33.122Z,5.72
2019-05-30T03:22:35.798Z,8.98
2019-05-30T03:27:38.519Z,4.28
2019-05-30T03:33:05.953Z,6.70
2019-05-30T03:37:45.703Z,6.58
2019-05-30T03:42:48.389Z,6.37
2019-05-30T03:47:54.316Z,7.78
2019-05-30T03:52:57.611Z,5.87
2019-05-30T03:58:16.655Z,6.70
2019-05-30T04:03:56.140Z,6.17
2019-05-30T04:09:01.944Z,7.58
2019-05-30T04:14:08.849Z,6.35
2019-05-30T04:19:12.472Z,6.33
2019-05-30T04:24:16.530Z,8.50
2019-05-30T04:29:19.303Z,6.00
2019-05-30T04:34:22.067Z,6.58
2019-05-30T04:39:24.774Z,8.33
2019-05-30T04:44:27.503Z,7.75
2019-05-30T04:49:30.158Z,7.00
2019-05-30T04:54:32.812Z,5.92
2019-05-30T04:59:35.551Z,7.83
2019-05-30T05:04:38.287Z,7.37
2019-05-30T05:09:41.039Z,6.53
2019-05-30T05:14:43.765Z,7.28
2019-05-30T05:19:46.502Z,7.92
2019-05-30T05:24:49.228Z,5.30
2019-05-30T05:29:51.881Z,4.70
2019-05-30T05:34:55.066Z,7.05
2019-05-30T05:39:57.738Z,9.68
2019-05-30T05:45:00.472Z,7.05
2019-05-30T05:50:25.024Z,10.70
2019-05-30T05:55:28.940Z,11.38
2019-05-30T06:00:32.133Z,7.12
2019-05-30T06:05:34.870Z,7.17
2019-05-30T06:10:37.613Z,7.60
2019-05-30T06:15:40.350Z,7.00
2019-05-30T06:20:43.013Z,7.60
2019-05-30T06:25:45.745Z,7.10
2019-05-30T06:30:48.397Z,10.15
2019-05-30T06:35:51.147Z,11.65
2019-05-30T06:40:53.875Z,9.80
2019-05-30T06:45:56.530Z,13.10
2019-05-30T06:50:59.192Z,12.10
2019-05-30T06:56:01.930Z,11.30
2019-05-30T07:01:04.671Z,14.73
2019-05-30T07:06:07.863Z,13.98
2019-05-30T07:11:10.839Z,10.88
2019-05-30T07:16:13.569Z,14.73
2019-05-30T07:21:16.249Z,13.10
2019-05-30T07:26:18.993Z,14.33
2019-05-30T07:31:21.715Z,13.28
2019-05-30T07:36:24.400Z,14.55
2019-05-30T07:41:28.627Z,16.75
2019-05-30T07:46:31.556Z,17.35
2019-05-30T07:51:34.682Z,17.32
2019-05-30T07:56:38.074Z,15.93
2019-05-30T08:01:40.892Z,12.47
2019-05-30T08:06:44.367Z,13.53
2019-05-30T08:11:47.035Z,16.70
2019-05-30T08:16:50.060Z,18.87
2019-05-30T08:21:52.733Z,17.60
2019-05-30T08:26:55.393Z,17.45
2019-05-30T08:31:58.331Z,18.20
2019-05-30T08:37:01.023Z,15.28
2019-05-30T08:42:03.818Z,14.68
2019-05-30T08:47:06.552Z,13.43
2019-05-30T08:52:09.300Z,13.72
2019-05-30T08:57:12.060Z,11.57
2019-05-30T09:02:14.882Z,13.30
2019-05-30T09:07:17.554Z,14.00
2019-05-30T09:12:20.298Z,14.75
2019-05-30T09:17:23.037Z,13.88
2019-05-30T09:22:25.792Z,14.18
2019-05-30T09:27:28.461Z,13.15
2019-05-30T09:32:31.232Z,15.15
2019-05-30T09:37:34.336Z,14.68
2019-05-30T09:42:37.020Z,16.17
2019-05-30T09:47:41.329Z,14.87
2019-05-30T09:52:45.154Z,12.30
2019-05-30T09:57:49.528Z,14.05
2019-05-30T10:02:52.586Z,10.18
2019-05-30T10:07:55.491Z,11.00
2019-05-30T10:12:58.543Z,9.03
2019-05-30T10:18:01.212Z,9.28
2019-05-30T10:23:04.029Z,8.93
2019-05-30T10:28:06.772Z,7.15
2019-05-30T10:33:09.579Z,6.87
2019-05-30T10:38:12.241Z,5.45
2019-05-30T10:43:14.899Z,4.67
2019-05-30T10:48:20.685Z,5.80
2019-05-30T10:53:22.021Z,6.12
2019-05-30T10:58:25.059Z,3.15
2019-05-30T11:03:28.470Z,3.40
2019-05-30T11:08:32.647Z,5.00
2019-05-30T11:13:35.602Z,3.75
2019-05-30T11:18:38.257Z,3.22
2019-05-30T11:23:40.914Z,3.62
2019-05-30T11:28:43.573Z,4.65
2019-05-30T11:33:55.158Z,2.22
2019-05-30T11:38:57.854Z,3.20
2019-05-30T11:44:03.957Z,3.15
2019-05-30T11:49:05.154Z,2.55
2019-05-30T11:54:07.820Z,2.12
2019-05-30T11:59:10.555Z,2.25
2019-05-30T12:04:13.209Z,1.60
2019-05-30T12:09:15.947Z,1.50
2019-05-30T12:14:21.354Z,1.35
2019-05-30T12:19:23.053Z,1.55
2019-05-30T12:24:25.729Z,1.72
2019-05-30T12:29:28.450Z,2.42
2019-05-30T12:34:31.122Z,2.47
2019-05-30T12:39:33.782Z,2.10
2019-05-30T12:44:36.430Z,2.92
2019-05-30T12:49:39.125Z,2.52
2019-05-30T12:54:41.815Z,3.30
2019-05-30T12:59:44.609Z,3.75
2019-05-30T13:04:47.279Z,5.33
2019-05-30T13:09:50.010Z,2.77
2019-05-30T13:14:52.665Z,3.02
2019-05-30T13:19:55.340Z,2.77
2019-05-30T13:24:57.998Z,5.00
2019-05-30T13:30:00.721Z,3.42
2019-05-30T13:35:05.428Z,1.40
2019-05-30T13:40:24.155Z,1.35
2019-05-30T13:45:14.857Z,1.40
2019-05-30T13:50:17.531Z,1.70
2019-05-30T13:55:20.338Z,1.75
2019-05-30T14:00:43.842Z,2.50
2019-05-30T14:05:46.498Z,0.90
2019-05-30T14:10:49.236Z,1.30
2019-05-30T14:15:51.973Z,1.10
2019-05-30T14:20:54.636Z,1.22
2019-05-30T14:25:57.394Z,1.57
2019-05-30T14:31:00.132Z,1.00
2019-05-30T14:36:07.151Z,1.42
2019-05-30T14:41:07.238Z,1.20
2019-05-30T14:46:10.361Z,1.75
2019-05-30T14:51:13.581Z,1.50
2019-05-30T14:56:17.597Z,1.10
2019-05-30T15:01:20.458Z,1.05
2019-05-30T15:06:23.153Z,3.65
2019-05-30T15:11:25.900Z,1.85
2019-05-30T15:16:28.559Z,1.52
2019-05-30T15:21:31.219Z,2.95
2019-05-30T15:26:33.891Z,1.37
2019-05-30T15:31:36.550Z,3.27
2019-05-30T15:36:39.290Z,4.95
2019-05-30T15:41:42.020Z,2.02
2019-05-30T15:46:44.670Z,1.95
2019-05-30T15:51:47.342Z,4.05
2019-05-30T15:56:49.998Z,2.20
2019-05-30T16:01:52.650Z,1.60
2019-05-30T16:06:55.307Z,1.87
2019-05-30T16:11:57.998Z,1.57
2019-05-30T16:17:00.655Z,2.72
2019-05-30T16:22:03.396Z,1.90
2019-05-30T16:27:06.129Z,4.72
2019-05-30T16:32:08.797Z,2.33
2019-05-30T16:37:11.773Z,2.50
2019-05-30T16:42:14.493Z,4.42
2019-05-30T16:47:18.168Z,4.92
2019-05-30T16:52:21.225Z,3.62
2019-05-30T16:57:23.963Z,3.92
2019-05-30T17:02:27.002Z,3.62
2019-05-30T17:07:29.754Z,1.70
2019-05-30T17:12:32.418Z,5.53
2019-05-30T17:17:35.149Z,3.30
2019-05-30T17:22:37.806Z,3.90
2019-05-30T17:27:40.464Z,7.22
2019-05-30T17:32:43.161Z,2.40
2019-05-30T17:37:45.894Z,2.20
2019-05-30T17:42:48.554Z,2.60
2019-05-30T17:47:59.508Z,3.20
2019-05-30T17:52:55.596Z,2.45
2019-05-30T17:57:58.268Z,4.90
2019-05-30T18:03:00.989Z,4.92
2019-05-30T18:08:03.923Z,4.47
2019-05-30T18:13:06.676Z,3.45
2019-05-30T18:18:09.391Z,3.22
2019-05-30T18:23:12.200Z,3.92
2019-05-30T18:28:14.866Z,3.60
2019-05-30T18:33:17.995Z,3.10
2019-05-30T18:38:20.640Z,5.35
2019-05-30T18:43:24.635Z,3.10
2019-05-30T18:48:27.418Z,4.53
2019-05-30T18:53:30.407Z,4.33
2019-05-30T18:58:33.323Z,3.55
2019-05-30T19:03:37.213Z,6.47
2019-05-30T19:08:40.042Z,3.08
2019-05-30T19:13:42.718Z,4.62
2019-05-30T19:18:45.464Z,3.80
2019-05-30T19:23:48.230Z,4.17
2019-05-30T19:28:50.934Z,7.35
2019-05-30T19:33:53.618Z,4.30
2019-05-30T19:38:56.341Z,4.20
2019-05-30T19:43:58.998Z,4.85
2019-05-30T19:49:01.682Z,4.42
2019-05-30T19:54:04.398Z,3.15
2019-05-30T19:59:07.136Z,3.33
2019-05-30T20:04:09.868Z,4.08
2019-05-30T20:09:12.545Z,4.35
2019-05-30T20:14:15.268Z,4.55
2019-05-30T20:19:18.311Z,5.30
2019-05-30T20:24:20.969Z,4.00
2019-05-30T20:29:23.682Z,4.45
2019-05-30T20:34:26.623Z,5.53
2019-05-30T20:39:29.334Z,3.40
2019-05-30T20:44:31.992Z,4.58
2019-05-30T20:49:35.116Z,4.05
2019-05-30T20:54:37.885Z,2.77
2019-05-30T20:59:40.697Z,4.60
2019-05-30T21:04:43.513Z,9.55
2019-05-30T21:09:46.785Z,5.67
2019-05-30T21:14:51.960Z,4.45
2019-05-30T21:19:54.637Z,3.67
2019-05-30T21:24:57.284Z,4.25
2019-05-30T21:29:59.984Z,3.77
2019-05-30T21:35:03.944Z,3.30
2019-05-30T21:40:08.401Z,2.40
2019-05-30T21:45:11.689Z,7.10
2019-05-30T21:50:14.982Z,3.70
2019-05-30T21:55:17.711Z,5.80
2019-05-30T22:11:03.717Z,4.33
2019-05-30T22:16:06.541Z,5.28
2019-05-30T22:21:09.265Z,4.58
2019-05-30T22:26:12.078Z,5.40
2019-05-30T22:31:15.028Z,4.33
2019-05-30T22:36:17.738Z,4.03
2019-05-30T22:41:20.569Z,4.83
2019-05-30T22:46:23.316Z,4.25
2019-05-30T22:51:27.604Z,4.65
2019-05-30T22:56:30.472Z,5.08
2019-05-30T23:01:33.123Z,2.20
2019-05-30T23:06:35.805Z,2.70
2019-05-30T23:11:38.458Z,3.92
2019-05-30T23:16:41.125Z,3.42
2019-05-30T23:21:43.777Z,4.58
2019-05-30T23:26:47.352Z,5.65
2019-05-30T23:31:50.199Z,2.92
2019-05-30T23:36:52.935Z,3.67
2019-05-30T23:41:55.690Z,3.50
2019-05-30T23:46:59.637Z,4.53
2019-05-30T23:52:02.554Z,5.87
2019-05-30T23:57:05.212Z,4.15
